createdAt,value
2023-04-27T00:00:38.693Z,1003.68
2023-04-27T00:01:38.665Z,1003.65
2023-04-27T00:02:38.743Z,1003.63
2023-04-27T00:03:38.761Z,1003.62
2023-04-27T00:04:38.847Z,1003.61
2023-04-27T00:05:38.659Z,1003.62
2023-04-27T00:06:38.610Z,1003.61
2023-04-27T00:07:38.586Z,1003.60
2023-04-27T00:08:38.568Z,1003.62
2023-04-27T00:09:38.560Z,1003.64
2023-04-27T00:10:38.538Z,1003.60
2023-04-27T00:11:38.531Z,1003.65
2023-04-27T00:12:38.571Z,1003.66
2023-04-27T00:13:38.493Z,1003.67
2023-04-27T00:14:38.499Z,1003.68
2023-04-27T00:15:38.568Z,1003.68
2023-04-27T00:16:38.475Z,1003.67
2023-04-27T00:17:38.478Z,1003.70
2023-04-27T00:18:38.453Z,1003.68
2023-04-27T00:19:38.534Z,1003.67
2023-04-27T00:20:38.420Z,1003.69
2023-04-27T00:21:38.431Z,1003.70
2023-04-27T00:22:38.392Z,1003.66
2023-04-27T00:23:38.385Z,1003.67
2023-04-27T00:24:38.393Z,1003.66
2023-04-27T00:25:38.571Z,1003.67
2023-04-27T00:26:38.352Z,1003.71
2023-04-27T00:27:38.356Z,1003.69
2023-04-27T00:28:38.338Z,1003.68
2023-04-27T00:29:38.331Z,1003.68
2023-04-27T00:30:38.333Z,1003.64
2023-04-27T00:31:38.451Z,1003.69
2023-04-27T00:32:38.366Z,1003.68
2023-04-27T00:33:38.268Z,1003.67
2023-04-27T00:34:38.320Z,1003.68
2023-04-27T00:35:38.335Z,1003.66
2023-04-27T00:36:38.233Z,1003.67
2023-04-27T00:37:38.240Z,1003.73
2023-04-27T00:38:38.237Z,1003.74
2023-04-27T00:39:38.232Z,1003.72
2023-04-27T00:40:38.237Z,1003.72
2023-04-27T00:41:38.215Z,1003.70
2023-04-27T00:42:38.175Z,1003.70
2023-04-27T00:43:38.170Z,1003.68
2023-04-27T00:44:39.812Z,1003.71
2023-04-27T00:45:38.206Z,1003.73
2023-04-27T00:46:38.181Z,1003.68
2023-04-27T00:47:38.295Z,1003.70
2023-04-27T00:48:38.121Z,1003.69
2023-04-27T00:49:38.107Z,1003.67
2023-04-27T00:50:38.153Z,1003.67
2023-04-27T00:51:38.098Z,1003.68
2023-04-27T00:52:38.116Z,1003.70
2023-04-27T00:53:38.068Z,1003.69
2023-04-27T00:54:38.054Z,1003.68
2023-04-27T00:55:38.149Z,1003.71
2023-04-27T00:56:38.031Z,1003.68
2023-04-27T00:57:38.014Z,1003.70
2023-04-27T00:58:38.043Z,1003.72
2023-04-27T00:59:37.988Z,1003.64
2023-04-27T01:00:37.990Z,1003.63
2023-04-27T01:01:37.995Z,1003.65
2023-04-27T01:02:38.600Z,1003.64
2023-04-27T01:03:38.163Z,1003.67
2023-04-27T01:04:38.043Z,1003.64
2023-04-27T01:05:37.928Z,1003.65
2023-04-27T01:06:37.926Z,1003.68
2023-04-27T01:07:37.918Z,1003.69
2023-04-27T01:08:37.895Z,1003.65
2023-04-27T01:09:37.953Z,1003.67
2023-04-27T01:10:37.871Z,1003.71
2023-04-27T01:11:37.872Z,1003.73
2023-04-27T01:12:37.857Z,1003.70
2023-04-27T01:13:37.861Z,1003.71
2023-04-27T01:14:37.828Z,1003.70
2023-04-27T01:15:37.891Z,1003.76
2023-04-27T01:16:37.851Z,1003.74
2023-04-27T01:17:37.837Z,1003.73
2023-04-27T01:18:37.798Z,1003.71
2023-04-27T01:19:38.028Z,1003.74
2023-04-27T01:20:37.769Z,1003.73
2023-04-27T01:21:37.753Z,1003.74
2023-04-27T01:22:37.828Z,1003.74
2023-04-27T01:23:37.743Z,1003.76
2023-04-27T01:24:37.724Z,1003.73
2023-04-27T01:25:37.796Z,1003.70
2023-04-27T01:26:37.691Z,1003.70
2023-04-27T01:27:37.688Z,1003.69
2023-04-27T01:28:37.688Z,1003.68
2023-04-27T01:29:37.680Z,1003.66
2023-04-27T01:30:37.655Z,1003.67
2023-04-27T01:31:37.719Z,1003.68
2023-04-27T01:32:37.683Z,1003.69
2023-04-27T01:33:37.642Z,1003.65
2023-04-27T01:34:37.608Z,1003.68
2023-04-27T01:35:37.638Z,1003.67
2023-04-27T01:36:37.606Z,1003.68
2023-04-27T01:37:37.632Z,1003.70
2023-04-27T01:38:37.571Z,1003.72
2023-04-27T01:39:37.578Z,1003.72
2023-04-27T01:40:37.571Z,1003.74
2023-04-27T01:41:37.555Z,1003.72
2023-04-27T01:42:37.540Z,1003.71
2023-04-27T01:43:37.520Z,1003.75
2023-04-27T01:44:37.500Z,1003.70
2023-04-27T01:45:37.540Z,1003.73
2023-04-27T01:46:37.524Z,1003.71
2023-04-27T01:47:37.583Z,1003.74
2023-04-27T01:48:37.457Z,1003.74
2023-04-27T01:49:37.449Z,1003.77
2023-04-27T01:50:58.502Z,1003.75
2023-04-27T01:51:59.292Z,1003.71
2023-04-27T01:52:58.435Z,1003.76
2023-04-27T01:53:58.516Z,1003.81
2023-04-27T01:54:37.392Z,1003.82
2023-04-27T01:55:37.382Z,1003.85
2023-04-27T01:56:58.374Z,1003.87
2023-04-27T01:57:58.384Z,1003.83
2023-04-27T01:58:58.361Z,1003.87
2023-04-27T01:59:58.356Z,1003.84
2023-04-27T02:00:37.326Z,1003.82
2023-04-27T02:01:37.378Z,1003.83
2023-04-27T02:02:37.383Z,1003.84
2023-04-27T02:03:37.492Z,1003.82
2023-04-27T02:04:58.307Z,1003.86
2023-04-27T02:05:37.276Z,1003.87
2023-04-27T02:06:37.288Z,1003.87
2023-04-27T02:07:58.324Z,1003.84
2023-04-27T02:08:37.266Z,1003.84
2023-04-27T02:09:37.274Z,1003.85
2023-04-27T02:10:58.234Z,1003.84
2023-04-27T02:11:37.220Z,1003.88
2023-04-27T02:12:37.210Z,1003.85
2023-04-27T02:13:58.189Z,1003.85
2023-04-27T02:14:37.202Z,1003.83
2023-04-27T02:15:37.191Z,1003.82
2023-04-27T02:16:37.223Z,1003.83
2023-04-27T02:17:37.203Z,1003.85
2023-04-27T02:18:58.147Z,1003.84
2023-04-27T02:19:37.130Z,1003.85
2023-04-27T02:20:37.179Z,1003.84
2023-04-27T02:21:58.153Z,1003.80
2023-04-27T02:22:37.093Z,1003.78
2023-04-27T02:23:37.084Z,1003.80
2023-04-27T02:24:58.355Z,1003.80
2023-04-27T02:25:37.066Z,1003.78
2023-04-27T02:26:37.062Z,1003.79
2023-04-27T02:27:58.066Z,1003.74
2023-04-27T02:28:58.170Z,1003.77
2023-04-27T02:29:58.030Z,1003.78
2023-04-27T02:30:58.019Z,1003.77
2023-04-27T02:31:58.117Z,1003.72
2023-04-27T02:32:58.064Z,1003.72
2023-04-27T02:33:58.034Z,1003.76
2023-04-27T02:34:57.973Z,1003.77
2023-04-27T02:35:57.964Z,1003.78
2023-04-27T02:36:57.955Z,1003.80
2023-04-27T02:37:57.999Z,1003.82
2023-04-27T02:38:57.938Z,1003.81
2023-04-27T02:39:57.936Z,1003.79
2023-04-27T02:40:57.955Z,1003.78
2023-04-27T02:41:58.311Z,1003.82
2023-04-27T02:42:57.875Z,1003.79
2023-04-27T02:43:57.864Z,1003.83
2023-04-27T02:44:57.886Z,1003.81
2023-04-27T02:45:57.833Z,1003.86
2023-04-27T02:46:57.910Z,1003.82
2023-04-27T02:47:57.860Z,1003.86
2023-04-27T02:48:57.804Z,1003.87
2023-04-27T02:49:57.839Z,1003.85
2023-04-27T02:50:57.808Z,1003.82
2023-04-27T02:51:57.794Z,1003.87
2023-04-27T02:52:57.782Z,1003.80
2023-04-27T02:53:57.807Z,1003.79
2023-04-27T02:54:57.750Z,1003.81
2023-04-27T02:55:57.751Z,1003.75
2023-04-27T02:56:57.767Z,1003.78
2023-04-27T02:57:57.718Z,1003.75
2023-04-27T02:58:57.725Z,1003.74
2023-04-27T02:59:57.716Z,1003.70
2023-04-27T03:00:57.905Z,1003.73
2023-04-27T03:01:57.683Z,1003.71
2023-04-27T03:02:57.845Z,1003.69
2023-04-27T03:03:57.902Z,1003.71
2023-04-27T03:04:57.651Z,1003.73
2023-04-27T03:05:57.694Z,1003.72
2023-04-27T03:06:57.622Z,1003.71
2023-04-27T03:07:57.628Z,1003.70
2023-04-27T03:08:36.604Z,1003.71
2023-04-27T03:09:57.597Z,1003.66
2023-04-27T03:10:57.586Z,1003.65
2023-04-27T03:11:57.638Z,1003.61
2023-04-27T03:12:57.568Z,1003.64
2023-04-27T03:13:57.555Z,1003.64
2023-04-27T03:14:57.539Z,1003.64
2023-04-27T03:15:57.603Z,1003.66
2023-04-27T03:16:57.619Z,1003.68
2023-04-27T03:17:57.546Z,1003.62
2023-04-27T03:18:57.628Z,1003.65
2023-04-27T03:19:57.500Z,1003.60
2023-04-27T03:20:57.479Z,1003.57
2023-04-27T03:21:36.452Z,1003.62
2023-04-27T03:22:36.452Z,1003.64
2023-04-27T03:23:36.443Z,1003.63
2023-04-27T03:24:36.425Z,1003.71
2023-04-27T03:25:36.572Z,1003.74
2023-04-27T03:26:36.399Z,1003.71
2023-04-27T03:27:36.396Z,1003.75
2023-04-27T03:28:36.371Z,1003.77
2023-04-27T03:29:36.378Z,1003.77
2023-04-27T03:30:36.371Z,1003.77
2023-04-27T03:31:36.375Z,1003.77
2023-04-27T03:32:36.358Z,1003.76
2023-04-27T03:33:36.324Z,1003.76
2023-04-27T03:34:36.418Z,1003.75
2023-04-27T03:35:36.297Z,1003.73
2023-04-27T03:36:36.295Z,1003.68
2023-04-27T03:37:36.289Z,1003.69
2023-04-27T03:38:36.282Z,1003.71
2023-04-27T03:39:36.254Z,1003.71
2023-04-27T03:40:36.397Z,1003.75
2023-04-27T03:41:36.235Z,1003.73
2023-04-27T03:42:36.236Z,1003.72
2023-04-27T03:43:36.204Z,1003.72
2023-04-27T03:44:36.227Z,1003.73
2023-04-27T03:45:36.240Z,1003.71
2023-04-27T03:46:36.200Z,1003.70
2023-04-27T03:47:36.337Z,1003.75
2023-04-27T03:48:36.170Z,1003.75
2023-04-27T03:49:36.154Z,1003.77
2023-04-27T03:50:36.130Z,1003.79
2023-04-27T03:51:36.182Z,1003.80
2023-04-27T03:52:36.105Z,1003.74
2023-04-27T03:53:36.092Z,1003.78
2023-04-27T03:54:36.097Z,1003.77
2023-04-27T03:55:36.089Z,1003.80
2023-04-27T03:56:36.074Z,1003.83
2023-04-27T03:57:36.068Z,1003.80
2023-04-27T03:58:36.044Z,1003.80
2023-04-27T03:59:36.030Z,1003.81
2023-04-27T04:00:36.047Z,1003.81
2023-04-27T04:01:36.002Z,1003.81
2023-04-27T04:02:36.173Z,1003.86
2023-04-27T04:03:36.060Z,1003.80
2023-04-27T04:04:36.203Z,1003.87
2023-04-27T04:05:35.968Z,1003.90
2023-04-27T04:06:35.971Z,1003.90
2023-04-27T04:07:35.954Z,1003.88
2023-04-27T04:08:35.952Z,1003.85
2023-04-27T04:09:35.918Z,1003.90
2023-04-27T04:10:35.924Z,1003.88
2023-04-27T04:11:35.952Z,1003.85
2023-04-27T04:12:35.910Z,1003.89
2023-04-27T04:13:35.948Z,1003.93
2023-04-27T04:14:35.887Z,1003.87
2023-04-27T04:15:35.888Z,1003.86
2023-04-27T04:16:35.854Z,1003.91
2023-04-27T04:17:35.862Z,1003.93
2023-04-27T04:18:35.855Z,1003.95
2023-04-27T04:19:35.819Z,1003.95
2023-04-27T04:20:35.810Z,1003.92
2023-04-27T04:21:35.788Z,1003.91
2023-04-27T04:22:35.774Z,1003.94
2023-04-27T04:23:35.776Z,1003.90
2023-04-27T04:24:35.797Z,1003.92
2023-04-27T04:25:35.746Z,1003.94
2023-04-27T04:26:35.749Z,1003.98
2023-04-27T04:27:35.718Z,1003.99
2023-04-27T04:28:35.710Z,1004.03
2023-04-27T04:29:35.734Z,1004.02
2023-04-27T04:30:35.691Z,1004.06
2023-04-27T04:31:35.694Z,1004.02
2023-04-27T04:32:35.716Z,1004.02
2023-04-27T04:33:35.655Z,1004.01
2023-04-27T04:34:35.696Z,1004.05
2023-04-27T04:35:35.636Z,1004.04
2023-04-27T04:36:35.655Z,1004.09
2023-04-27T04:37:35.613Z,1004.12
2023-04-27T04:38:35.654Z,1004.10
2023-04-27T04:39:35.605Z,1004.10
2023-04-27T04:40:35.603Z,1004.07
2023-04-27T04:41:35.587Z,1004.07
2023-04-27T04:42:35.707Z,1004.04
2023-04-27T04:43:35.551Z,1004.10
2023-04-27T04:44:35.547Z,1004.08
2023-04-27T04:45:35.582Z,1004.09
2023-04-27T04:46:35.586Z,1004.10
2023-04-27T04:47:35.562Z,1004.10
2023-04-27T04:48:35.567Z,1004.12
2023-04-27T04:49:35.505Z,1004.11
2023-04-27T04:50:35.488Z,1004.13
2023-04-27T04:51:35.472Z,1004.08
2023-04-27T04:52:35.510Z,1004.18
2023-04-27T04:53:35.512Z,1004.15
2023-04-27T04:54:35.433Z,1004.15
2023-04-27T04:55:35.424Z,1004.15
2023-04-27T04:56:35.415Z,1004.13
2023-04-27T04:57:35.403Z,1004.12
2023-04-27T04:58:35.412Z,1004.12
2023-04-27T04:59:35.474Z,1004.10
2023-04-27T05:00:35.377Z,1004.16
2023-04-27T05:01:35.449Z,1004.17
2023-04-27T05:03:29.085Z,1004.16
2023-04-27T05:04:28.794Z,1004.21
2023-04-27T05:05:27.716Z,1004.22
2023-04-27T05:06:27.813Z,1004.23
2023-04-27T05:07:27.680Z,1004.22
2023-04-27T05:08:27.643Z,1004.20
2023-04-27T05:09:27.617Z,1004.17
2023-04-27T05:10:27.617Z,1004.22
2023-04-27T05:11:27.633Z,1004.21
2023-04-27T05:12:27.647Z,1004.20
2023-04-27T05:13:27.568Z,1004.20
2023-04-27T05:14:27.565Z,1004.22
2023-04-27T05:15:27.569Z,1004.21
2023-04-27T05:16:27.620Z,1004.17
2023-04-27T05:17:27.626Z,1004.24
2023-04-27T05:18:27.564Z,1004.27
2023-04-27T05:19:27.515Z,1004.29
2023-04-27T05:20:27.505Z,1004.23
2023-04-27T05:21:27.504Z,1004.24
2023-04-27T05:22:27.484Z,1004.26
2023-04-27T05:23:27.503Z,1004.25
2023-04-27T05:24:27.474Z,1004.26
2023-04-27T05:25:27.448Z,1004.29
2023-04-27T05:26:27.444Z,1004.31
2023-04-27T05:27:27.433Z,1004.32
2023-04-27T05:28:27.521Z,1004.34
2023-04-27T05:29:27.403Z,1004.37
2023-04-27T05:30:27.413Z,1004.36
2023-04-27T05:31:27.449Z,1004.42
2023-04-27T05:32:27.397Z,1004.46
2023-04-27T05:33:27.395Z,1004.46
2023-04-27T05:34:27.368Z,1004.46
2023-04-27T05:35:27.352Z,1004.46
2023-04-27T05:36:27.346Z,1004.47
2023-04-27T05:37:27.351Z,1004.46
2023-04-27T05:38:27.307Z,1004.49
2023-04-27T05:39:27.329Z,1004.53
2023-04-27T05:40:27.480Z,1004.53
2023-04-27T05:41:27.307Z,1004.57
2023-04-27T05:42:27.286Z,1004.56
2023-04-27T05:43:27.254Z,1004.59
2023-04-27T05:44:27.359Z,1004.60
2023-04-27T05:45:27.237Z,1004.58
2023-04-27T05:46:27.369Z,1004.60
2023-04-27T05:47:27.298Z,1004.64
2023-04-27T05:48:27.206Z,1004.61
2023-04-27T05:49:27.242Z,1004.63
2023-04-27T05:50:27.189Z,1004.63
2023-04-27T05:51:27.169Z,1004.63
2023-04-27T05:52:27.173Z,1004.60
2023-04-27T05:53:27.274Z,1004.62
2023-04-27T05:54:27.137Z,1004.62
2023-04-27T05:55:27.165Z,1004.59
2023-04-27T05:56:27.112Z,1004.62
2023-04-27T05:57:27.116Z,1004.63
2023-04-27T05:58:27.108Z,1004.61
2023-04-27T05:59:27.089Z,1004.60
2023-04-27T06:00:27.072Z,1004.62
2023-04-27T06:01:27.129Z,1004.67
2023-04-27T06:02:27.152Z,1004.63
2023-04-27T06:03:27.454Z,1004.64
2023-04-27T06:04:27.510Z,1004.65
2023-04-27T06:05:27.164Z,1004.69
2023-04-27T06:06:27.037Z,1004.65
2023-04-27T06:07:26.995Z,1004.69
2023-04-27T06:08:26.998Z,1004.63
2023-04-27T06:09:26.987Z,1004.61
2023-04-27T06:10:26.994Z,1004.61
2023-04-27T06:11:26.966Z,1004.64
2023-04-27T06:12:27.039Z,1004.64
2023-04-27T06:13:26.979Z,1004.65
2023-04-27T06:14:26.946Z,1004.65
2023-04-27T06:15:26.929Z,1004.65
2023-04-27T06:16:26.985Z,1004.71
2023-04-27T06:17:26.902Z,1004.70
2023-04-27T06:18:26.886Z,1004.61
2023-04-27T06:19:26.902Z,1004.62
2023-04-27T06:20:26.968Z,1004.70
2023-04-27T06:21:26.885Z,1004.67
2023-04-27T06:22:26.861Z,1004.67
2023-04-27T06:23:26.881Z,1004.68
2023-04-27T06:24:26.819Z,1004.68
2023-04-27T06:25:27.405Z,1004.70
2023-04-27T06:26:26.838Z,1004.69
2023-04-27T06:27:26.792Z,1004.75
2023-04-27T06:28:26.790Z,1004.69
2023-04-27T06:29:26.768Z,1004.69
2023-04-27T06:30:26.783Z,1004.69
2023-04-27T06:31:26.804Z,1004.64
2023-04-27T06:32:26.762Z,1004.66
2023-04-27T06:33:26.733Z,1004.67
2023-04-27T06:34:26.768Z,1004.70
2023-04-27T06:35:26.750Z,1004.71
2023-04-27T06:36:26.702Z,1004.76
2023-04-27T06:37:26.754Z,1004.76
2023-04-27T06:38:26.743Z,1004.71
2023-04-27T06:39:26.668Z,1004.78
2023-04-27T06:40:26.663Z,1004.76
2023-04-27T06:41:26.654Z,1004.75
2023-04-27T06:42:26.648Z,1004.77
2023-04-27T06:43:26.838Z,1004.75
2023-04-27T06:44:26.610Z,1004.75
2023-04-27T06:45:26.604Z,1004.72
2023-04-27T06:46:26.678Z,1004.71
2023-04-27T06:47:26.617Z,1004.73
2023-04-27T06:48:26.639Z,1004.75
2023-04-27T06:49:26.565Z,1004.76
2023-04-27T06:50:26.552Z,1004.80
2023-04-27T06:51:26.841Z,1004.78
2023-04-27T06:52:26.587Z,1004.76
2023-04-27T06:53:26.528Z,1004.76
2023-04-27T06:54:26.545Z,1004.76
2023-04-27T06:55:26.546Z,1004.66
2023-04-27T06:56:26.545Z,1004.69
2023-04-27T06:57:26.520Z,1004.67
2023-04-27T06:58:26.630Z,1004.72
2023-04-27T06:59:26.590Z,1004.67
2023-04-27T07:00:26.450Z,1004.70
2023-04-27T07:01:26.683Z,1004.69
2023-04-27T07:02:26.464Z,1004.71
2023-04-27T07:03:26.808Z,1004.74
2023-04-27T07:04:26.723Z,1004.66
2023-04-27T07:05:26.472Z,1004.71
2023-04-27T07:06:26.456Z,1004.69
2023-04-27T07:07:26.476Z,1004.66
2023-04-27T07:08:26.468Z,1004.64
2023-04-27T07:09:27.798Z,1004.66
2023-04-27T07:10:26.690Z,1004.63
2023-04-27T07:11:26.383Z,1004.62
2023-04-27T07:12:26.592Z,1004.63
2023-04-27T07:13:26.501Z,1004.63
2023-04-27T07:14:26.355Z,1004.63
2023-04-27T07:15:26.654Z,1004.64
2023-04-27T07:16:26.707Z,1004.60
2023-04-27T07:17:26.384Z,1004.63
2023-04-27T07:18:26.311Z,1004.64
2023-04-27T07:19:26.456Z,1004.64
2023-04-27T07:20:26.400Z,1004.66
2023-04-27T07:21:26.376Z,1004.65
2023-04-27T07:22:26.422Z,1004.68
2023-04-27T07:23:26.355Z,1004.69
2023-04-27T07:24:26.349Z,1004.73
2023-04-27T07:25:26.574Z,1004.69
2023-04-27T07:26:26.398Z,1004.73
2023-04-27T07:27:26.311Z,1004.74
2023-04-27T07:28:26.296Z,1004.72
2023-04-27T07:29:27.548Z,1004.74
2023-04-27T07:30:26.376Z,1004.71
2023-04-27T07:31:26.592Z,1004.72
2023-04-27T07:32:26.349Z,1004.66
2023-04-27T07:33:26.230Z,1004.65
2023-04-27T07:34:27.933Z,1004.60
2023-04-27T07:35:26.459Z,1004.62
2023-04-27T07:36:26.404Z,1004.62
2023-04-27T07:37:26.243Z,1004.65
2023-04-27T07:38:26.143Z,1004.63
2023-04-27T07:39:26.526Z,1004.68
2023-04-27T07:40:26.194Z,1004.66
2023-04-27T07:41:26.787Z,1004.66
2023-04-27T07:42:26.248Z,1004.69
2023-04-27T07:43:26.294Z,1004.66
2023-04-27T07:44:26.076Z,1004.62
2023-04-27T07:45:26.192Z,1004.60
2023-04-27T07:46:26.172Z,1004.62
2023-04-27T07:47:26.240Z,1004.59
2023-04-27T07:48:26.363Z,1004.62
2023-04-27T07:49:26.342Z,1004.65
2023-04-27T07:50:26.154Z,1004.64
2023-04-27T07:51:26.261Z,1004.59
2023-04-27T07:52:26.187Z,1004.60
2023-04-27T07:53:26.180Z,1004.61
2023-04-27T07:54:27.087Z,1004.63
2023-04-27T07:55:26.154Z,1004.62
2023-04-27T07:56:26.137Z,1004.63
2023-04-27T07:57:26.136Z,1004.61
2023-04-27T07:58:25.976Z,1004.60
2023-04-27T07:59:26.103Z,1004.59
2023-04-27T08:00:26.077Z,1004.56
2023-04-27T08:01:26.094Z,1004.48
2023-04-27T08:02:26.269Z,1004.49
2023-04-27T08:03:26.178Z,1004.52
2023-04-27T08:04:26.385Z,1004.45
2023-04-27T08:05:26.476Z,1004.50
2023-04-27T08:06:26.273Z,1004.49
2023-04-27T08:07:26.113Z,1004.50
2023-04-27T08:08:25.858Z,1004.51
2023-04-27T08:09:25.887Z,1004.52
2023-04-27T08:10:25.883Z,1004.52
2023-04-27T08:11:25.760Z,1004.52
2023-04-27T08:12:25.807Z,1004.46
2023-04-27T08:13:25.820Z,1004.48
2023-04-27T08:14:25.842Z,1004.40
2023-04-27T08:15:25.828Z,1004.44
2023-04-27T08:16:25.884Z,1004.39
2023-04-27T08:17:25.747Z,1004.37
2023-04-27T08:18:26.133Z,1004.39
2023-04-27T08:19:25.780Z,1004.41
2023-04-27T08:20:25.729Z,1004.42
2023-04-27T08:21:25.928Z,1004.39
2023-04-27T08:22:25.775Z,1004.45
2023-04-27T08:23:25.662Z,1004.43
2023-04-27T08:24:25.753Z,1004.43
2023-04-27T08:25:25.764Z,1004.43
2023-04-27T08:26:26.470Z,1004.44
2023-04-27T08:27:25.624Z,1004.45
2023-04-27T08:28:25.549Z,1004.43
2023-04-27T08:29:28.376Z,1004.41
2023-04-27T08:30:25.676Z,1004.43
2023-04-27T08:31:25.750Z,1004.41
2023-04-27T08:32:25.592Z,1004.38
2023-04-27T08:33:25.636Z,1004.36
2023-04-27T08:34:25.695Z,1004.38
2023-04-27T08:35:25.576Z,1004.33
2023-04-27T08:36:25.582Z,1004.28
2023-04-27T08:37:25.564Z,1004.28
2023-04-27T08:38:25.763Z,1004.28
2023-04-27T08:39:25.660Z,1004.26
2023-04-27T08:40:25.534Z,1004.25
2023-04-27T08:41:25.486Z,1004.24
2023-04-27T08:42:25.473Z,1004.20
2023-04-27T08:43:25.498Z,1004.22
2023-04-27T08:44:25.468Z,1004.23
2023-04-27T08:45:25.387Z,1004.24
2023-04-27T08:46:25.360Z,1004.21
2023-04-27T08:47:38.660Z,1004.22
2023-04-27T08:48:25.418Z,1004.23
2023-04-27T08:49:25.308Z,1004.24
2023-04-27T08:50:25.336Z,1004.20
2023-04-27T08:51:25.304Z,1004.15
2023-04-27T08:52:25.381Z,1004.21
2023-04-27T08:53:25.354Z,1004.23
2023-04-27T08:54:25.364Z,1004.23
2023-04-27T08:55:25.289Z,1004.24
2023-04-27T08:56:25.437Z,1004.23
2023-04-27T08:57:25.300Z,1004.26
2023-04-27T08:58:25.240Z,1004.24
2023-04-27T08:59:25.156Z,1004.23
2023-04-27T09:00:25.269Z,1004.31
2023-04-27T09:01:25.251Z,1004.22
2023-04-27T09:02:25.260Z,1004.25
2023-04-27T09:03:25.260Z,1004.21
2023-04-27T09:04:25.347Z,1004.24
2023-04-27T09:05:25.138Z,1004.30
2023-04-27T09:06:25.193Z,1004.25
2023-04-27T09:07:26.206Z,1004.24
2023-04-27T09:08:25.066Z,1004.22
2023-04-27T09:09:25.078Z,1004.08
2023-04-27T09:10:25.098Z,1004.10
2023-04-27T09:11:25.020Z,1004.05
2023-04-27T09:12:25.039Z,1004.09
2023-04-27T09:13:25.005Z,1004.07
2023-04-27T09:14:25.039Z,1004.11
2023-04-27T09:15:25.014Z,1004.09
2023-04-27T09:16:24.990Z,1004.14
2023-04-27T09:17:25.108Z,1004.08
2023-04-27T09:18:24.957Z,1004.14
2023-04-27T09:19:25.089Z,1004.09
2023-04-27T09:20:24.953Z,1004.13
2023-04-27T09:21:24.931Z,1004.11
2023-04-27T09:22:24.927Z,1004.06
2023-04-27T09:23:24.926Z,1004.04
2023-04-27T09:24:24.932Z,1004.06
2023-04-27T09:25:24.925Z,1004.03
2023-04-27T09:26:24.870Z,1004.04
2023-04-27T09:27:24.875Z,1004.05
2023-04-27T09:28:24.858Z,1004.05
2023-04-27T09:29:24.897Z,1004.06
2023-04-27T09:30:24.936Z,1004.02
2023-04-27T09:31:24.849Z,1004.03
2023-04-27T09:32:24.906Z,1004.08
2023-04-27T09:33:25.327Z,1003.97
2023-04-27T09:34:25.025Z,1004.03
2023-04-27T09:35:24.777Z,1004.02
2023-04-27T09:36:24.801Z,1004.07
2023-04-27T09:37:24.848Z,1003.99
2023-04-27T09:38:24.759Z,1003.96
2023-04-27T09:39:24.736Z,1004.02
2023-04-27T09:40:24.729Z,1003.99
2023-04-27T09:41:24.729Z,1004.03
2023-04-27T09:42:24.696Z,1003.97
2023-04-27T09:43:24.676Z,1003.98
2023-04-27T09:44:24.718Z,1003.96
2023-04-27T09:45:24.713Z,1003.94
2023-04-27T09:46:24.821Z,1003.95
2023-04-27T09:47:24.712Z,1003.88
2023-04-27T09:48:24.670Z,1003.95
2023-04-27T09:49:24.742Z,1003.90
2023-04-27T09:50:24.675Z,1003.84
2023-04-27T09:51:24.647Z,1003.90
2023-04-27T09:52:24.589Z,1003.91
2023-04-27T09:53:24.644Z,1003.93
2023-04-27T09:54:24.690Z,1003.88
2023-04-27T09:55:24.562Z,1003.88
2023-04-27T09:56:24.561Z,1003.87
2023-04-27T09:57:24.557Z,1003.83
2023-04-27T09:58:24.537Z,1003.85
2023-04-27T09:59:24.555Z,1003.79
2023-04-27T10:00:24.560Z,1003.78
2023-04-27T10:01:24.613Z,1003.77
2023-04-27T10:02:25.670Z,1003.75
2023-04-27T10:03:24.510Z,1003.80
2023-04-27T10:04:24.573Z,1003.77
2023-04-27T10:05:24.602Z,1003.79
2023-04-27T10:06:36.990Z,1003.83
2023-04-27T10:07:24.684Z,1003.78
2023-04-27T10:08:24.749Z,1003.75
2023-04-27T10:09:25.044Z,1003.69
2023-04-27T10:10:24.495Z,1003.70
2023-04-27T10:11:24.458Z,1003.65
2023-04-27T10:12:24.424Z,1003.63
2023-04-27T10:13:24.455Z,1003.66
2023-04-27T10:14:24.341Z,1003.66
2023-04-27T10:15:24.358Z,1003.66
2023-04-27T10:16:24.444Z,1003.72
2023-04-27T10:17:24.393Z,1003.72
2023-04-27T10:18:24.346Z,1003.70
2023-04-27T10:19:24.325Z,1003.74
2023-04-27T10:20:24.336Z,1003.65
2023-04-27T10:21:24.321Z,1003.69
2023-04-27T10:22:24.273Z,1003.67
2023-04-27T10:23:24.702Z,1003.67
2023-04-27T10:24:24.274Z,1003.65
2023-04-27T10:25:24.225Z,1003.60
2023-04-27T10:26:24.209Z,1003.61
2023-04-27T10:27:24.243Z,1003.58
2023-04-27T10:28:24.222Z,1003.58
2023-04-27T10:29:24.273Z,1003.60
2023-04-27T10:30:24.195Z,1003.61
2023-04-27T10:31:24.254Z,1003.61
2023-04-27T10:32:24.234Z,1003.63
2023-04-27T10:33:24.138Z,1003.59
2023-04-27T10:34:24.166Z,1003.58
2023-04-27T10:35:33.799Z,1003.54
2023-04-27T10:36:24.421Z,1003.55
2023-04-27T10:37:25.648Z,1003.57
2023-04-27T10:38:24.084Z,1003.53
2023-04-27T10:39:30.025Z,1003.54
2023-04-27T10:40:25.056Z,1003.49
2023-04-27T10:41:24.170Z,1003.40
2023-04-27T10:42:24.038Z,1003.42
2023-04-27T10:43:24.120Z,1003.41
2023-04-27T10:44:24.027Z,1003.46
2023-04-27T10:45:24.100Z,1003.47
2023-04-27T10:46:24.017Z,1003.41
2023-04-27T10:47:24.047Z,1003.42
2023-04-27T10:48:24.112Z,1003.40
2023-04-27T10:49:24.013Z,1003.42
2023-04-27T10:50:23.966Z,1003.44
2023-04-27T10:51:23.963Z,1003.40
2023-04-27T10:52:23.998Z,1003.42
2023-04-27T10:53:24.028Z,1003.38
2023-04-27T10:54:24.056Z,1003.35
2023-04-27T10:55:23.972Z,1003.37
2023-04-27T10:56:23.943Z,1003.35
2023-04-27T10:57:23.885Z,1003.33
2023-04-27T10:58:24.163Z,1003.32
2023-04-27T10:59:24.199Z,1003.31
2023-04-27T11:00:23.955Z,1003.30
2023-04-27T11:01:23.860Z,1003.29
2023-04-27T11:02:23.931Z,1003.26
2023-04-27T11:03:31.459Z,1003.27
2023-04-27T11:04:23.812Z,1003.27
2023-04-27T11:05:23.806Z,1003.26
2023-04-27T11:06:23.781Z,1003.26
2023-04-27T11:07:23.835Z,1003.28
2023-04-27T11:08:23.758Z,1003.29
2023-04-27T11:09:23.771Z,1003.28
2023-04-27T11:10:23.733Z,1003.28
2023-04-27T11:11:23.732Z,1003.26
2023-04-27T11:12:23.712Z,1003.20
2023-04-27T11:13:23.760Z,1003.15
2023-04-27T11:14:23.736Z,1003.15
2023-04-27T11:15:23.679Z,1003.12
2023-04-27T11:16:23.752Z,1003.05
2023-04-27T11:17:23.684Z,1003.07
2023-04-27T11:18:23.670Z,1003.07
2023-04-27T11:19:23.668Z,1003.11
2023-04-27T11:20:23.631Z,1003.16
2023-04-27T11:21:23.608Z,1003.18
2023-04-27T11:22:23.620Z,1003.12
2023-04-27T11:23:23.582Z,1003.07
2023-04-27T11:24:23.634Z,1003.06
2023-04-27T11:25:23.575Z,1003.06
2023-04-27T11:26:23.556Z,1003.05
2023-04-27T11:27:23.570Z,1003.03
2023-04-27T11:28:23.531Z,1003.01
2023-04-27T11:29:23.524Z,1003.12
2023-04-27T11:30:23.523Z,1003.07
2023-04-27T11:31:23.568Z,1003.14
2023-04-27T11:32:23.558Z,1003.07
2023-04-27T11:33:23.482Z,1003.11
2023-04-27T11:34:23.466Z,1003.06
2023-04-27T11:35:23.479Z,1003.05
2023-04-27T11:36:23.452Z,1002.99
2023-04-27T11:37:23.473Z,1003.00
2023-04-27T11:38:23.540Z,1002.98
2023-04-27T11:39:23.828Z,1002.97
2023-04-27T11:40:24.630Z,1002.97
2023-04-27T11:41:23.447Z,1002.97
2023-04-27T11:42:23.383Z,1002.95
2023-04-27T11:43:23.381Z,1002.96
2023-04-27T11:44:23.383Z,1002.87
2023-04-27T11:45:23.350Z,1002.86
2023-04-27T11:46:23.386Z,1002.85
2023-04-27T11:47:23.368Z,1002.90
2023-04-27T11:48:23.327Z,1002.90
2023-04-27T11:49:23.335Z,1002.91
2023-04-27T11:50:23.299Z,1002.85
2023-04-27T11:51:23.285Z,1002.87
2023-04-27T11:52:23.300Z,1002.86
2023-04-27T11:53:23.316Z,1002.88
2023-04-27T11:54:23.258Z,1002.84
2023-04-27T11:55:23.241Z,1002.82
2023-04-27T11:56:23.247Z,1002.88
2023-04-27T11:57:23.229Z,1002.82
2023-04-27T11:58:23.236Z,1002.81
2023-04-27T11:59:23.192Z,1002.80
2023-04-27T12:00:23.186Z,1002.77
2023-04-27T12:01:34.749Z,1002.77
2023-04-27T12:02:24.309Z,1002.74
2023-04-27T12:03:23.467Z,1002.71
2023-04-27T12:04:23.222Z,1002.74
2023-04-27T12:05:23.352Z,1002.69
2023-04-27T12:07:23.135Z,1002.67